createdAt,value
2023-05-15T00:00:08.515Z,13.80
2023-05-15T00:01:08.529Z,12.50
2023-05-15T00:02:08.625Z,13.30
2023-05-15T00:03:08.642Z,13.30
2023-05-15T00:04:08.552Z,13.80
2023-05-15T00:05:08.488Z,13.00
2023-05-15T00:06:08.445Z,13.50
2023-05-15T00:07:08.455Z,15.50
2023-05-15T00:08:08.446Z,14.10
2023-05-15T00:09:08.408Z,13.80
2023-05-15T00:10:08.405Z,12.60
2023-05-15T00:11:08.371Z,15.40
2023-05-15T00:12:08.380Z,12.60
2023-05-15T00:13:08.364Z,13.30
2023-05-15T00:14:08.369Z,12.50
2023-05-15T00:15:08.328Z,12.10
2023-05-15T00:16:08.510Z,13.30
2023-05-15T00:17:08.309Z,12.90
2023-05-15T00:18:08.377Z,12.80
2023-05-15T00:19:08.366Z,12.90
2023-05-15T00:20:08.291Z,13.10
2023-05-15T00:21:08.268Z,14.40
2023-05-15T00:22:08.273Z,14.70
2023-05-15T00:23:08.237Z,13.40
2023-05-15T00:24:08.256Z,12.80
2023-05-15T00:25:08.234Z,13.50
2023-05-15T00:26:08.248Z,13.90
2023-05-15T00:27:08.197Z,16.80
2023-05-15T00:28:08.213Z,14.20
2023-05-15T00:29:08.181Z,13.60
2023-05-15T00:30:08.190Z,13.70
2023-05-15T00:31:08.329Z,13.20
2023-05-15T00:32:08.176Z,13.90
2023-05-15T00:33:08.153Z,12.90
2023-05-15T00:34:08.158Z,13.00
2023-05-15T00:35:08.116Z,13.50
2023-05-15T00:36:08.150Z,12.20
2023-05-15T00:37:08.127Z,12.60
2023-05-15T00:38:08.097Z,13.80
2023-05-15T00:39:08.101Z,13.80
2023-05-15T00:40:08.100Z,13.70
2023-05-15T00:41:08.065Z,12.70
2023-05-15T00:42:08.062Z,14.60
2023-05-15T00:43:08.064Z,13.70
2023-05-15T00:44:08.052Z,13.10
2023-05-15T00:45:08.010Z,13.60
2023-05-15T00:46:08.030Z,13.90
2023-05-15T00:47:08.026Z,15.00
2023-05-15T00:48:07.998Z,13.20
2023-05-15T00:49:07.994Z,13.80
2023-05-15T00:50:07.995Z,14.90
2023-05-15T00:51:07.948Z,14.00
2023-05-15T00:52:07.957Z,13.30
2023-05-15T00:53:07.928Z,15.20
2023-05-15T00:54:08.023Z,12.50
2023-05-15T00:55:07.930Z,13.00
2023-05-15T00:56:07.931Z,14.00
2023-05-15T00:57:07.885Z,14.80
2023-05-15T00:58:07.902Z,13.80
2023-05-15T00:59:07.895Z,14.50
2023-05-15T01:00:07.874Z,14.10
2023-05-15T01:01:08.767Z,12.90
2023-05-15T01:02:07.955Z,12.50
2023-05-15T01:03:08.031Z,14.30
2023-05-15T01:04:07.833Z,13.40
2023-05-15T01:05:07.792Z,13.40
2023-05-15T01:06:07.812Z,14.40
2023-05-15T01:07:07.789Z,13.80
2023-05-15T01:08:07.783Z,14.20
2023-05-15T01:09:07.756Z,13.80
2023-05-15T01:10:07.761Z,15.20
2023-05-15T01:11:07.742Z,14.80
2023-05-15T01:12:07.743Z,14.40
2023-05-15T01:13:07.726Z,14.70
2023-05-15T01:14:07.731Z,15.30
2023-05-15T01:15:07.679Z,14.80
2023-05-15T01:16:07.705Z,14.40
2023-05-15T01:17:07.685Z,14.30
2023-05-15T01:18:07.743Z,13.40
2023-05-15T01:19:07.788Z,15.40
2023-05-15T01:20:07.714Z,14.30
2023-05-15T01:21:07.642Z,14.70
2023-05-15T01:22:07.616Z,14.00
2023-05-15T01:23:07.644Z,14.20
2023-05-15T01:24:07.590Z,15.00
2023-05-15T01:25:07.619Z,16.30
2023-05-15T01:26:07.575Z,15.40
2023-05-15T01:27:07.589Z,15.00
2023-05-15T01:28:07.541Z,14.10
2023-05-15T01:29:07.557Z,13.50
2023-05-15T01:30:07.535Z,14.20
2023-05-15T01:31:07.569Z,13.80
2023-05-15T01:32:07.568Z,15.10
2023-05-15T01:33:07.609Z,13.50
2023-05-15T01:34:07.493Z,14.20
2023-05-15T01:35:07.501Z,14.10
2023-05-15T01:36:07.459Z,13.60
2023-05-15T01:37:07.491Z,14.40
2023-05-15T01:38:07.459Z,13.80
2023-05-15T01:39:07.445Z,13.60
2023-05-15T01:40:07.422Z,13.50
2023-05-15T01:41:07.421Z,13.30
2023-05-15T01:42:07.406Z,12.60
2023-05-15T01:43:07.602Z,12.20
2023-05-15T01:44:07.371Z,13.70
2023-05-15T01:45:07.404Z,14.70
2023-05-15T01:46:07.368Z,14.90
2023-05-15T01:47:07.359Z,14.20
2023-05-15T01:48:07.530Z,14.90
2023-05-15T01:49:07.368Z,15.30
2023-05-15T01:50:07.310Z,14.50
2023-05-15T01:51:07.324Z,14.10
2023-05-15T01:52:07.281Z,14.20
2023-05-15T01:53:07.320Z,14.80
2023-05-15T01:54:07.257Z,15.30
2023-05-15T01:55:07.315Z,14.60
2023-05-15T01:56:07.240Z,15.60
2023-05-15T01:57:07.292Z,14.40
2023-05-15T01:58:07.213Z,14.40
2023-05-15T01:59:07.228Z,15.10
2023-05-15T02:00:07.207Z,15.20
2023-05-15T02:01:07.237Z,14.60
2023-05-15T02:02:07.213Z,16.20
2023-05-15T02:03:07.249Z,14.40
2023-05-15T02:04:07.200Z,13.70
2023-05-15T02:05:07.167Z,15.50
2023-05-15T02:06:07.134Z,17.20
2023-05-15T02:07:07.167Z,15.90
2023-05-15T02:08:07.124Z,16.50
2023-05-15T02:09:07.122Z,16.40
2023-05-15T02:10:07.098Z,16.10
2023-05-15T02:11:07.100Z,15.60
2023-05-15T02:12:07.065Z,15.60
2023-05-15T02:13:07.098Z,14.50
2023-05-15T02:14:07.041Z,16.80
2023-05-15T02:15:07.058Z,16.30
2023-05-15T02:16:07.088Z,15.30
2023-05-15T02:17:07.039Z,17.30
2023-05-15T02:18:07.010Z,14.40
2023-05-15T02:19:07.130Z,14.60
2023-05-15T02:20:06.973Z,14.30
2023-05-15T02:21:06.995Z,13.50
2023-05-15T02:22:06.989Z,15.00
2023-05-15T02:23:06.973Z,16.00
2023-05-15T02:24:06.952Z,15.50
2023-05-15T02:25:06.982Z,14.90
2023-05-15T02:26:06.913Z,15.10
2023-05-15T02:27:06.926Z,16.50
2023-05-15T02:28:06.905Z,15.50
2023-05-15T02:29:06.902Z,16.00
2023-05-15T02:30:06.885Z,16.60
2023-05-15T02:31:06.906Z,16.60
2023-05-15T02:32:06.926Z,15.80
2023-05-15T02:33:06.925Z,15.70
2023-05-15T02:34:06.833Z,18.30
2023-05-15T02:35:06.850Z,17.00
2023-05-15T02:36:06.823Z,15.50
2023-05-15T02:37:06.832Z,18.00
2023-05-15T02:38:06.791Z,15.50
2023-05-15T02:39:06.798Z,15.10
2023-05-15T02:40:06.769Z,15.50
2023-05-15T02:41:06.817Z,16.10
2023-05-15T02:42:06.754Z,17.20
2023-05-15T02:43:06.784Z,15.70
2023-05-15T02:44:06.719Z,16.40
2023-05-15T02:45:06.760Z,15.70
2023-05-15T02:46:06.785Z,15.40
2023-05-15T02:47:06.710Z,16.00
2023-05-15T02:48:06.728Z,15.10
2023-05-15T02:49:06.713Z,14.80
2023-05-15T02:50:06.659Z,14.60
2023-05-15T02:51:06.666Z,15.70
2023-05-15T02:52:06.649Z,14.70
2023-05-15T02:53:06.650Z,14.90
2023-05-15T02:54:06.617Z,14.60
2023-05-15T02:55:06.668Z,15.10
2023-05-15T02:56:06.597Z,16.90
2023-05-15T02:57:06.598Z,14.40
2023-05-15T02:58:06.575Z,15.00
2023-05-15T02:59:06.583Z,15.00
2023-05-15T03:00:06.548Z,15.50
2023-05-15T03:01:06.670Z,15.50
2023-05-15T03:02:06.532Z,15.20
2023-05-15T03:03:06.540Z,15.00
2023-05-15T03:04:06.566Z,15.90
2023-05-15T03:05:06.648Z,13.90
2023-05-15T03:06:06.506Z,15.50
2023-05-15T03:07:06.501Z,15.00
2023-05-15T03:08:06.507Z,14.70
2023-05-15T03:09:06.457Z,16.80
2023-05-15T03:10:06.473Z,15.60
2023-05-15T03:11:06.438Z,14.60
2023-05-15T03:12:06.444Z,15.10
2023-05-15T03:13:06.585Z,16.80
2023-05-15T03:14:06.435Z,13.80
2023-05-15T03:15:06.439Z,16.00
2023-05-15T03:16:06.401Z,16.50
2023-05-15T03:17:06.388Z,15.20
2023-05-15T03:18:06.578Z,15.80
2023-05-15T03:19:06.430Z,16.40
2023-05-15T03:20:06.364Z,15.80
2023-05-15T03:21:06.324Z,15.10
2023-05-15T03:22:06.353Z,15.00
2023-05-15T03:23:06.302Z,16.10
2023-05-15T03:24:06.310Z,16.40
2023-05-15T03:25:06.320Z,15.90
2023-05-15T03:26:06.284Z,15.50
2023-05-15T03:27:06.279Z,15.80
2023-05-15T03:28:06.277Z,16.00
2023-05-15T03:29:06.236Z,16.50
2023-05-15T03:30:06.256Z,17.20
2023-05-15T03:31:06.293Z,15.60
2023-05-15T03:32:06.238Z,17.30
2023-05-15T03:33:06.207Z,15.70
2023-05-15T03:34:06.222Z,15.80
2023-05-15T03:35:06.170Z,16.40
2023-05-15T03:36:06.182Z,15.80
2023-05-15T03:37:06.197Z,14.70
2023-05-15T03:38:06.157Z,15.10
2023-05-15T03:39:06.129Z,15.70
2023-05-15T03:40:06.150Z,15.40
2023-05-15T03:41:06.118Z,16.40
2023-05-15T03:42:06.124Z,16.70
2023-05-15T03:43:06.112Z,17.90
2023-05-15T03:44:06.105Z,18.40
2023-05-15T03:45:06.072Z,16.90
2023-05-15T03:46:06.117Z,16.90
2023-05-15T03:47:06.041Z,16.00
2023-05-15T03:48:06.092Z,18.60
2023-05-15T03:49:06.044Z,15.70
2023-05-15T03:50:06.036Z,17.60
2023-05-15T03:51:06.002Z,18.10
2023-05-15T03:52:06.020Z,16.70
2023-05-15T03:53:05.990Z,16.20
2023-05-15T03:54:05.995Z,16.80
2023-05-15T03:55:06.016Z,17.20
2023-05-15T03:56:05.998Z,16.80
2023-05-15T03:57:05.944Z,16.10
2023-05-15T03:58:05.959Z,16.80
2023-05-15T03:59:05.917Z,16.90
2023-05-15T04:00:05.942Z,17.30
2023-05-15T04:01:05.922Z,16.40
2023-05-15T04:02:06.112Z,17.70
2023-05-15T04:03:06.034Z,16.70
2023-05-15T04:04:05.890Z,17.60
2023-05-15T04:05:05.923Z,18.70
2023-05-15T04:06:05.868Z,17.60
2023-05-15T04:07:05.855Z,17.00
2023-05-15T04:08:05.872Z,17.30
2023-05-15T04:09:05.802Z,17.00
2023-05-15T04:10:05.828Z,18.40
2023-05-15T04:11:05.827Z,15.80
2023-05-15T04:12:05.818Z,16.90
2023-05-15T04:13:05.792Z,18.10
2023-05-15T04:14:05.780Z,18.10
2023-05-15T04:15:05.749Z,17.20
2023-05-15T04:16:05.795Z,16.30
2023-05-15T04:17:05.728Z,16.50
2023-05-15T04:18:05.840Z,17.10
2023-05-15T04:19:05.757Z,17.00
2023-05-15T04:20:05.764Z,17.90
2023-05-15T04:21:05.676Z,18.90
2023-05-15T04:22:05.707Z,17.80
2023-05-15T04:23:05.664Z,16.80
2023-05-15T04:24:05.667Z,17.80
2023-05-15T04:25:05.794Z,18.00
2023-05-15T04:26:05.655Z,17.50
2023-05-15T04:27:05.677Z,16.00
2023-05-15T04:28:05.643Z,16.30
2023-05-15T04:29:05.605Z,17.20
2023-05-15T04:30:05.612Z,17.30
2023-05-15T04:31:05.627Z,16.40
2023-05-15T04:32:05.670Z,18.20
2023-05-15T04:33:05.592Z,15.80
2023-05-15T04:34:05.564Z,18.70
2023-05-15T04:35:05.538Z,16.80
2023-05-15T04:36:05.548Z,16.60
2023-05-15T04:37:05.514Z,17.60
2023-05-15T04:38:05.531Z,16.20
2023-05-15T04:39:05.486Z,17.80
2023-05-15T04:40:05.498Z,17.70
2023-05-15T04:41:05.476Z,17.60
2023-05-15T04:42:05.495Z,17.60
2023-05-15T04:43:05.450Z,17.20
2023-05-15T04:44:05.456Z,18.40
2023-05-15T04:45:05.436Z,17.10
2023-05-15T04:46:05.490Z,16.30
2023-05-15T04:47:05.437Z,17.40
2023-05-15T04:48:05.507Z,18.00
2023-05-15T04:49:05.391Z,17.40
2023-05-15T04:50:05.419Z,17.50
2023-05-15T04:51:05.363Z,16.80
2023-05-15T04:52:05.366Z,18.20
2023-05-15T04:53:05.341Z,17.10
2023-05-15T04:54:05.349Z,16.10
2023-05-15T04:55:05.341Z,20.20
2023-05-15T04:56:05.338Z,17.70
2023-05-15T04:57:05.307Z,16.70
2023-05-15T04:58:05.301Z,16.60
2023-05-15T04:59:05.280Z,17.50
2023-05-15T05:00:05.289Z,19.30
2023-05-15T05:01:05.333Z,17.40
2023-05-15T05:02:05.299Z,16.60
2023-05-15T05:03:05.304Z,17.00
2023-05-15T05:04:05.315Z,17.50
2023-05-15T05:05:05.207Z,17.90
2023-05-15T05:06:05.237Z,17.60
2023-05-15T05:07:05.211Z,18.10
2023-05-15T05:08:05.207Z,19.40
2023-05-15T05:09:05.170Z,19.40
2023-05-15T05:10:05.199Z,18.20
2023-05-15T05:11:05.150Z,17.80
2023-05-15T05:12:05.167Z,17.40
2023-05-15T05:13:05.225Z,17.10
2023-05-15T05:14:05.163Z,16.90
2023-05-15T05:15:05.108Z,16.20
2023-05-15T05:16:05.147Z,16.60
2023-05-15T05:17:05.089Z,16.00
2023-05-15T05:18:05.176Z,15.70
2023-05-15T05:19:05.106Z,17.90
2023-05-15T05:20:05.069Z,19.20
2023-05-15T05:21:05.042Z,19.70
2023-05-15T05:22:05.070Z,18.00
2023-05-15T05:23:05.032Z,18.90
2023-05-15T05:24:05.044Z,19.80
2023-05-15T05:25:05.039Z,17.50
2023-05-15T05:26:06.217Z,17.80
2023-05-15T05:27:04.976Z,18.30
2023-05-15T05:28:04.992Z,18.90
2023-05-15T05:29:04.959Z,19.70
2023-05-15T05:30:04.977Z,20.40
2023-05-15T05:31:04.989Z,21.30
2023-05-15T05:32:04.945Z,19.90
2023-05-15T05:33:04.971Z,22.30
2023-05-15T05:34:04.895Z,20.90
2023-05-15T05:35:04.907Z,19.40
2023-05-15T05:36:04.881Z,20.90
2023-05-15T05:37:04.946Z,20.90
2023-05-15T05:38:04.849Z,19.70
2023-05-15T05:39:04.865Z,22.30
2023-05-15T05:40:04.842Z,20.50
2023-05-15T05:41:04.848Z,22.20
2023-05-15T05:42:04.806Z,23.30
2023-05-15T05:43:04.841Z,23.50
2023-05-15T05:44:04.787Z,24.30
2023-05-15T05:45:04.839Z,21.60
2023-05-15T05:46:04.767Z,26.20
2023-05-15T05:47:04.836Z,24.60
2023-05-15T05:48:04.814Z,28.80
2023-05-15T05:49:04.797Z,27.00
2023-05-15T05:50:04.742Z,27.70
2023-05-15T05:51:04.733Z,31.40
2023-05-15T05:52:04.710Z,31.30
2023-05-15T05:53:04.735Z,31.00
2023-05-15T05:54:04.692Z,32.30
2023-05-15T05:55:04.726Z,34.70
2023-05-15T05:56:04.656Z,36.20
2023-05-15T05:57:04.685Z,37.10
2023-05-15T05:58:08.542Z,43.30
2023-05-15T05:59:04.653Z,37.20
2023-05-15T06:00:04.649Z,44.60
2023-05-15T06:01:04.662Z,42.90
2023-05-15T06:02:04.723Z,43.70
2023-05-15T06:03:04.682Z,44.60
2023-05-15T06:04:04.621Z,44.70
2023-05-15T06:05:04.597Z,44.50
2023-05-15T06:06:04.549Z,44.70
2023-05-15T06:07:04.578Z,47.10
2023-05-15T06:08:04.527Z,47.90
2023-05-15T06:09:04.551Z,45.70
2023-05-15T06:10:04.507Z,46.50
2023-05-15T06:11:04.523Z,47.90
2023-05-15T06:12:04.575Z,47.80
2023-05-15T06:13:04.511Z,46.30
2023-05-15T06:14:04.462Z,47.20
2023-05-15T06:15:04.486Z,45.40
2023-05-15T06:16:04.454Z,44.80
2023-05-15T06:17:04.529Z,48.20
2023-05-15T06:18:04.451Z,48.50
2023-05-15T06:19:04.519Z,47.40
2023-05-15T06:20:04.409Z,46.00
2023-05-15T06:21:04.425Z,50.90
2023-05-15T06:22:04.379Z,46.80
2023-05-15T06:23:04.394Z,51.00
2023-05-15T06:24:04.372Z,45.00
2023-05-15T06:25:04.533Z,49.50
2023-05-15T06:26:04.327Z,46.50
2023-05-15T06:27:04.354Z,45.50
2023-05-15T06:28:04.312Z,45.60
2023-05-15T06:29:04.350Z,45.30
2023-05-15T06:30:04.297Z,49.10
2023-05-15T06:31:04.411Z,50.50
2023-05-15T06:32:04.301Z,51.60
2023-05-15T06:33:04.338Z,51.80
2023-05-15T06:34:04.245Z,49.10
2023-05-15T06:35:04.266Z,48.90
2023-05-15T06:36:04.249Z,52.20
2023-05-15T06:37:04.273Z,51.80
2023-05-15T06:38:04.214Z,52.70
2023-05-15T06:39:04.238Z,52.60
2023-05-15T06:40:04.182Z,47.10
2023-05-15T06:41:04.378Z,50.50
2023-05-15T06:42:04.198Z,50.70
2023-05-15T06:43:04.222Z,50.70
2023-05-15T06:44:04.210Z,49.50
2023-05-15T06:45:04.216Z,46.40
2023-05-15T06:46:04.212Z,50.30
2023-05-15T06:47:04.153Z,50.50
2023-05-15T06:48:04.113Z,49.40
2023-05-15T06:49:04.143Z,50.90
2023-05-15T06:50:04.072Z,52.20
2023-05-15T06:51:04.098Z,49.10
2023-05-15T06:52:04.057Z,50.10
2023-05-15T06:53:04.071Z,50.70
2023-05-15T06:54:04.068Z,52.40
2023-05-15T06:55:04.071Z,54.00
2023-05-15T06:56:04.013Z,52.60
2023-05-15T06:57:04.033Z,53.60
2023-05-15T06:58:04.009Z,50.10
2023-05-15T06:59:04.025Z,51.80
2023-05-15T07:00:03.975Z,52.30
2023-05-15T07:01:04.000Z,56.50
2023-05-15T07:02:03.988Z,58.80
2023-05-15T07:03:04.054Z,57.70
2023-05-15T07:04:03.945Z,58.70
2023-05-15T07:05:04.054Z,63.10
2023-05-15T07:06:03.931Z,64.80
2023-05-15T07:07:03.929Z,65.50
2023-05-15T07:08:03.881Z,62.90
2023-05-15T07:09:03.977Z,63.70
2023-05-15T07:10:03.871Z,67.20
2023-05-15T07:11:03.870Z,58.10
2023-05-15T07:12:03.856Z,58.40
2023-05-15T07:13:03.874Z,57.70
2023-05-15T07:14:03.815Z,63.40
2023-05-15T07:15:03.832Z,59.60
2023-05-15T07:16:03.808Z,59.00
2023-05-15T07:17:03.850Z,60.90
2023-05-15T07:18:03.817Z,60.40
2023-05-15T07:19:03.962Z,62.80
2023-05-15T07:20:03.782Z,63.60
2023-05-15T07:21:03.784Z,63.90
2023-05-15T07:22:03.806Z,61.40
2023-05-15T07:23:03.757Z,60.20
2023-05-15T07:24:03.715Z,61.10
2023-05-15T07:25:03.737Z,61.50
2023-05-15T07:26:03.723Z,61.70
2023-05-15T07:27:03.700Z,63.80
2023-05-15T07:28:03.661Z,62.30
2023-05-15T07:29:03.682Z,61.20
2023-05-15T07:30:03.660Z,59.60
2023-05-15T07:31:03.819Z,61.00
2023-05-15T07:32:03.724Z,62.00
2023-05-15T07:33:03.721Z,61.10
2023-05-15T07:34:03.603Z,62.30
2023-05-15T07:35:03.618Z,59.90
2023-05-15T07:36:03.580Z,60.80
2023-05-15T07:37:03.612Z,60.40
2023-05-15T07:38:03.608Z,65.30
2023-05-15T07:39:03.583Z,61.60
2023-05-15T07:40:03.536Z,61.50
2023-05-15T07:41:03.552Z,61.50
2023-05-15T07:42:03.517Z,59.20
2023-05-15T07:43:03.774Z,60.30
2023-05-15T07:44:03.505Z,57.50
2023-05-15T07:45:03.535Z,57.60
2023-05-15T07:46:03.527Z,58.30
2023-05-15T07:47:03.502Z,59.00
2023-05-15T07:48:03.472Z,59.60
2023-05-15T07:49:03.566Z,62.00
2023-05-15T07:50:03.441Z,60.20
2023-05-15T07:51:03.440Z,59.00
2023-05-15T07:52:03.404Z,62.10
2023-05-15T07:53:03.416Z,61.70
2023-05-15T07:54:03.386Z,61.20
2023-05-15T07:55:03.510Z,65.90
2023-05-15T07:56:03.368Z,60.60
2023-05-15T07:57:03.398Z,60.10
2023-05-15T07:58:03.340Z,62.90
2023-05-15T07:59:03.452Z,63.70
2023-05-15T08:00:03.337Z,69.00
2023-05-15T08:01:03.374Z,71.60
2023-05-15T08:02:03.323Z,70.50
2023-05-15T08:03:03.400Z,70.40
2023-05-15T08:04:03.492Z,69.80
2023-05-15T08:05:03.296Z,71.50
2023-05-15T08:06:03.265Z,80.00
2023-05-15T08:07:03.313Z,73.30
2023-05-15T08:08:03.246Z,73.40
2023-05-15T08:09:03.260Z,72.00
2023-05-15T08:10:03.211Z,69.80
2023-05-15T08:11:03.225Z,72.00
2023-05-15T08:12:03.194Z,68.90
2023-05-15T08:13:03.239Z,70.90
2023-05-15T08:14:03.209Z,72.70
2023-05-15T08:15:03.198Z,71.90
2023-05-15T08:16:03.157Z,68.80
2023-05-15T08:17:03.162Z,68.30
2023-05-15T08:18:03.179Z,66.10
2023-05-15T08:19:03.354Z,70.20
2023-05-15T08:20:03.131Z,70.50
2023-05-15T08:21:04.661Z,71.10
2023-05-15T08:22:03.086Z,72.10
2023-05-15T08:23:03.108Z,72.20
2023-05-15T08:24:03.077Z,73.40
2023-05-15T08:25:03.094Z,72.60
2023-05-15T08:26:03.136Z,76.60
2023-05-15T08:27:03.058Z,71.70
2023-05-15T08:28:03.022Z,70.70
2023-05-15T08:29:03.029Z,70.40
2023-05-15T08:30:03.004Z,65.80
2023-05-15T08:31:03.086Z,67.00
2023-05-15T08:32:02.993Z,69.00
2023-05-15T08:33:03.040Z,70.50
2023-05-15T08:34:02.956Z,71.30
2023-05-15T08:35:03.001Z,70.50
2023-05-15T08:36:02.975Z,71.10
2023-05-15T08:37:02.961Z,69.10
2023-05-15T08:38:02.926Z,70.60
2023-05-15T08:39:02.951Z,66.30
2023-05-15T08:40:02.893Z,64.70
2023-05-15T08:41:02.928Z,70.70
2023-05-15T08:42:02.864Z,69.00
2023-05-15T08:43:02.936Z,70.60
2023-05-15T08:44:02.846Z,71.70
2023-05-15T08:45:02.854Z,71.90
2023-05-15T08:46:02.856Z,70.10
2023-05-15T08:47:03.030Z,72.70
2023-05-15T08:48:02.903Z,71.80
2023-05-15T08:49:02.864Z,72.80
2023-05-15T08:50:02.785Z,75.40
2023-05-15T08:51:02.835Z,71.60
2023-05-15T08:52:02.757Z,71.60
2023-05-15T08:53:02.799Z,73.20
2023-05-15T08:54:02.729Z,77.60
2023-05-15T08:55:02.789Z,74.00
2023-05-15T08:56:02.729Z,75.20
2023-05-15T08:57:02.751Z,75.10
2023-05-15T08:58:02.694Z,75.20
2023-05-15T08:59:02.719Z,71.40
2023-05-15T09:00:02.676Z,78.50
2023-05-15T09:01:02.737Z,77.60
2023-05-15T09:02:02.721Z,74.30
2023-05-15T09:03:02.763Z,73.70
2023-05-15T09:04:02.669Z,72.60
2023-05-15T09:05:02.638Z,73.60
2023-05-15T09:06:02.630Z,72.10
2023-05-15T09:07:02.638Z,66.90
2023-05-15T09:08:02.618Z,69.30
2023-05-15T09:09:02.604Z,67.90
2023-05-15T09:10:02.570Z,66.30
2023-05-15T09:11:02.589Z,70.80
2023-05-15T09:12:02.548Z,66.90
2023-05-15T09:13:02.579Z,68.10
2023-05-15T09:14:02.518Z,64.70
2023-05-15T09:15:02.539Z,61.20
2023-05-15T09:16:02.517Z,64.30
2023-05-15T09:17:02.739Z,59.90
2023-05-15T09:18:02.542Z,58.70
2023-05-15T09:19:02.541Z,60.80
2023-05-15T09:20:02.465Z,57.60
2023-05-15T09:21:02.464Z,58.70
2023-05-15T09:22:02.463Z,54.60
2023-05-15T09:23:02.460Z,54.20
2023-05-15T09:24:02.413Z,56.60
2023-05-15T09:25:02.455Z,52.90
2023-05-15T09:26:02.412Z,52.60
2023-05-15T09:27:02.403Z,54.80
2023-05-15T09:28:02.379Z,55.00
2023-05-15T09:29:02.389Z,54.50
2023-05-15T09:30:02.350Z,52.40
2023-05-15T09:31:02.425Z,52.80
2023-05-15T09:32:02.385Z,51.50
2023-05-15T09:33:02.359Z,48.80
2023-05-15T09:34:02.322Z,50.50
2023-05-15T09:35:02.313Z,47.10
2023-05-15T09:36:02.292Z,47.20
2023-05-15T09:37:02.326Z,48.70
2023-05-15T09:38:02.274Z,47.90
2023-05-15T09:39:02.275Z,50.60
2023-05-15T09:40:02.249Z,46.30
2023-05-15T09:41:02.248Z,47.40
2023-05-15T09:42:02.217Z,47.60
2023-05-15T09:43:02.259Z,48.20
2023-05-15T09:44:02.197Z,49.20
2023-05-15T09:45:02.212Z,46.90
2023-05-15T09:46:02.272Z,48.20
2023-05-15T09:47:02.255Z,49.70
2023-05-15T09:48:02.222Z,47.80
2023-05-15T09:49:02.182Z,51.10
2023-05-15T09:50:02.183Z,47.70
2023-05-15T09:51:02.212Z,48.30
2023-05-15T09:52:02.154Z,46.40
2023-05-15T09:53:02.103Z,46.60
2023-05-15T09:54:02.282Z,47.50
2023-05-15T09:55:02.092Z,47.00
2023-05-15T09:56:02.176Z,46.50
2023-05-15T09:57:02.053Z,49.50
2023-05-15T09:58:02.128Z,46.10
2023-05-15T09:59:02.066Z,47.20
2023-05-15T10:00:02.051Z,48.10
2023-05-15T10:01:02.039Z,45.70
2023-05-15T10:02:02.262Z,47.40
2023-05-15T10:03:02.074Z,48.30
2023-05-15T10:04:02.029Z,49.80
2023-05-15T10:05:02.300Z,46.30
2023-05-15T10:06:02.142Z,45.60
2023-05-15T10:07:01.963Z,46.90
2023-05-15T10:08:01.977Z,45.10
2023-05-15T10:09:01.944Z,46.60
2023-05-15T10:10:01.991Z,43.10
2023-05-15T10:11:01.914Z,45.20
2023-05-15T10:12:01.918Z,44.40
2023-05-15T10:13:01.906Z,47.40
2023-05-15T10:14:01.904Z,45.70
2023-05-15T10:15:01.874Z,42.80
2023-05-15T10:16:01.943Z,46.40
2023-05-15T10:17:01.892Z,48.80
2023-05-15T10:18:01.890Z,46.10
2023-05-15T10:19:04.818Z,46.20
2023-05-15T10:20:01.835Z,43.40
2023-05-15T10:21:01.840Z,42.00
2023-05-15T10:22:01.851Z,43.00
2023-05-15T10:23:01.795Z,40.70
2023-05-15T10:24:01.801Z,45.30
2023-05-15T10:25:01.789Z,42.90
2023-05-15T10:26:01.781Z,42.60
2023-05-15T10:27:01.783Z,43.20
2023-05-15T10:28:01.760Z,41.50
2023-05-15T10:29:01.719Z,41.70
2023-05-15T10:30:01.733Z,40.00
2023-05-15T10:31:01.840Z,38.50
2023-05-15T10:32:01.713Z,39.40
2023-05-15T10:33:01.688Z,37.80
2023-05-15T10:34:01.696Z,39.20
2023-05-15T10:35:01.675Z,39.10
2023-05-15T10:36:01.684Z,39.50
2023-05-15T10:37:01.799Z,39.70
2023-05-15T10:38:01.638Z,36.40
2023-05-15T10:39:01.601Z,36.40
2023-05-15T10:40:01.614Z,35.80
2023-05-15T10:41:15.633Z,35.30
2023-05-15T10:42:01.608Z,34.30
2023-05-15T10:43:01.582Z,35.60
2023-05-15T10:44:01.601Z,35.90
2023-05-15T10:45:01.542Z,36.00
2023-05-15T10:46:01.546Z,35.00
2023-05-15T10:47:01.561Z,35.50
2023-05-15T10:48:01.630Z,36.10
2023-05-15T10:49:01.526Z,34.50
2023-05-15T10:50:01.550Z,35.40
2023-05-15T10:51:01.511Z,34.00
2023-05-15T10:52:01.493Z,32.60
2023-05-15T10:53:01.452Z,34.40
2023-05-15T10:54:01.468Z,35.10
2023-05-15T10:55:01.492Z,35.10
2023-05-15T10:56:01.462Z,34.10
2023-05-15T10:57:01.405Z,33.00
2023-05-15T10:58:01.413Z,33.00
2023-05-15T10:59:01.384Z,34.40
2023-05-15T11:00:01.408Z,33.50
2023-05-15T11:01:01.431Z,36.50
2023-05-15T11:02:01.366Z,36.50
2023-05-15T11:03:01.422Z,34.00
2023-05-15T11:04:01.377Z,32.50
2023-05-15T11:05:01.335Z,33.10
2023-05-15T11:06:01.333Z,32.30
2023-05-15T11:07:01.334Z,32.60
2023-05-15T11:08:01.300Z,31.90
2023-05-15T11:09:01.268Z,30.90
2023-05-15T11:10:01.284Z,32.00
2023-05-15T11:11:01.261Z,32.60
2023-05-15T11:12:01.276Z,31.90
2023-05-15T11:13:01.256Z,30.80
2023-05-15T11:14:01.298Z,32.20
2023-05-15T11:15:01.221Z,32.90
2023-05-15T11:16:01.220Z,31.60
2023-05-15T11:17:01.336Z,29.70
2023-05-15T11:18:01.233Z,32.00
2023-05-15T11:19:01.226Z,30.40
2023-05-15T11:20:01.250Z,31.90
2023-05-15T11:21:01.145Z,31.20
2023-05-15T11:22:01.176Z,31.50
2023-05-15T11:23:01.117Z,30.50
2023-05-15T11:24:01.149Z,32.10
2023-05-15T11:25:01.147Z,29.40
2023-05-15T11:26:01.121Z,32.00
2023-05-15T11:27:01.074Z,32.40
2023-05-15T11:28:01.115Z,31.00
2023-05-15T11:29:01.080Z,32.00
2023-05-15T11:30:01.090Z,29.90
2023-05-15T11:31:01.086Z,30.00
2023-05-15T11:32:01.082Z,31.20
2023-05-15T11:33:01.073Z,30.90
2023-05-15T11:34:01.030Z,30.50
2023-05-15T11:35:01.046Z,31.00
2023-05-15T11:36:01.012Z,28.40
2023-05-15T11:37:00.997Z,27.10
2023-05-15T11:38:01.028Z,25.20
2023-05-15T11:39:00.967Z,26.20
2023-05-15T11:40:01.002Z,27.50
2023-05-15T11:41:00.943Z,26.50
2023-05-15T11:42:01.164Z,25.60
2023-05-15T11:43:00.987Z,28.00
2023-05-15T11:44:00.958Z,29.10
2023-05-15T11:45:00.891Z,27.70
2023-05-15T11:46:00.965Z,26.90
2023-05-15T11:47:00.962Z,26.80
2023-05-15T11:48:01.002Z,27.50
2023-05-15T11:49:00.893Z,26.80
2023-05-15T11:50:00.863Z,26.90
2023-05-15T11:51:00.836Z,26.40
2023-05-15T11:52:00.842Z,27.70
2023-05-15T11:53:00.799Z,26.00
2023-05-15T11:54:00.813Z,26.40
2023-05-15T11:55:00.806Z,26.90
2023-05-15T11:56:00.821Z,27.50
2023-05-15T11:57:00.781Z,25.60
2023-05-15T11:58:00.797Z,29.80
2023-05-15T11:59:00.744Z,25.70
2023-05-15T12:00:00.766Z,26.30
2023-05-15T12:01:00.740Z,25.30
2023-05-15T12:02:00.742Z,26.30
2023-05-15T12:03:00.782Z,25.70
2023-05-15T12:04:01.098Z,25.00
2023-05-15T12:05:00.800Z,25.60
2023-05-15T12:06:00.705Z,24.80
2023-05-15T12:07:02.873Z,23.70
2023-05-15T12:08:00.701Z,25.40
2023-05-15T12:09:00.655Z,24.30
2023-05-15T12:10:00.659Z,25.90
2023-05-15T12:11:00.621Z,24.20
2023-05-15T12:12:00.641Z,22.40
2023-05-15T12:13:00.668Z,22.60
2023-05-15T12:14:00.613Z,23.50
2023-05-15T12:15:00.589Z,23.00
2023-05-15T12:16:00.665Z,24.20
2023-05-15T12:17:00.742Z,20.20
2023-05-15T12:18:00.619Z,18.60
2023-05-15T12:19:00.621Z,21.60
2023-05-15T12:20:00.552Z,22.10
2023-05-15T12:21:00.563Z,21.20
2023-05-15T12:22:00.554Z,20.40
2023-05-15T12:23:00.488Z,23.00
2023-05-15T12:24:07.536Z,23.60
2023-05-15T12:25:00.518Z,23.70
2023-05-15T12:26:00.484Z,21.50
2023-05-15T12:27:00.473Z,21.60
2023-05-15T12:28:00.459Z,19.60
2023-05-15T12:29:00.430Z,19.50
2023-05-15T12:30:00.447Z,18.90
2023-05-15T12:31:00.436Z,20.70
2023-05-15T12:32:00.643Z,21.50
2023-05-15T12:33:00.438Z,22.00
2023-05-15T12:34:00.424Z,22.60
2023-05-15T12:35:00.418Z,21.80
2023-05-15T12:36:01.846Z,20.90
2023-05-15T12:37:00.375Z,21.30
2023-05-15T12:38:00.359Z,22.30
2023-05-15T12:39:00.329Z,21.50
2023-05-15T12:40:00.346Z,21.30
2023-05-15T12:41:00.314Z,21.60
2023-05-15T12:42:00.339Z,20.20
2023-05-15T12:43:00.300Z,20.60
2023-05-15T12:44:00.306Z,20.90
2023-05-15T12:45:00.264Z,21.60
2023-05-15T12:46:00.310Z,20.50
2023-05-15T12:47:00.243Z,21.50
2023-05-15T12:48:00.284Z,21.90
2023-05-15T12:49:00.280Z,21.00
2023-05-15T12:50:00.242Z,21.80
2023-05-15T12:51:00.245Z,21.90
2023-05-15T12:52:00.203Z,21.90